Wednesday, October 18, 2017, 4:04 PM MDT
Back to Local

KITR, Burlington Carson County

Location: Burlington, CO, United States Lat: 39.25
Local Time: 4:04 PM MDT (22:04 GMT) Lon: -102.283
Time Zone: US/Mountain Elev: 4215 ft

Show me the last for .
Show Decoded

2017-10-18 15:53 METAR KITR 182153Z AUTO 35009KT 10SM -RA CLR 26/M09 A3009 RMK AO2 SLP149 P0000
                 T02611089 =
2017-10-18 14:53 METAR KITR 182053Z AUTO 34011G16KT 10SM -RA CLR 28/M09 A3007 RMK AO2 SLP142
                 P0000 60000 T02781089 56012 =
2017-10-18 13:53 METAR KITR 181953Z AUTO 35012G23KT 10SM -RA CLR 28/M09 A3007 RMK AO2 SLP144
                 P0000 T02781089 =
2017-10-18 12:53 METAR KITR 181853Z AUTO 35014G22KT 10SM -RA CLR 27/M08 A3010 RMK AO2 RAB1756
                 SLP150 P0000 T02721083 =
2017-10-18 11:53 METAR KITR 181753Z AUTO 36014G22KT 10SM CLR 26/M05 A3012 RMK AO2 SLP159
                 T02561050 10256 20089 51008 =
2017-10-18 10:53 METAR KITR 181653Z AUTO 36008KT 10SM CLR 23/M02 A3011 RMK AO2 SLP158 T02281022 =
2017-10-18 09:53 METAR KITR 181553Z AUTO 31008KT 10SM CLR 20/M02 A3010 RMK AO2 SLP160 T02001017 =
2017-10-18 08:53 METAR KITR 181453Z AUTO 29007KT 10SM CLR 16/01 A3009 RMK AO2 SLP159 T01610006
                 53022 =
2017-10-18 07:53 METAR KITR 181353Z AUTO 30011KT 10SM CLR 11/01 A3006 RMK AO2 SLP157 T01060006 =
2017-10-18 06:53 METAR KITR 181253Z AUTO 26009KT 10SM CLR 10/00 A3002 RMK AO2 SLP143 T01000000 =
2017-10-18 05:53 METAR KITR 181153Z AUTO 25009KT 10SM CLR 09/00 A3002 RMK AO2 SLP137 T00940000
                 10117 20067 55000 =
2017-10-18 04:53 METAR KITR 181053Z AUTO 26008KT 10SM CLR 09/00 A3001 RMK AO2 SLP122 T00890000 =
2017-10-18 03:53 METAR KITR 180953Z AUTO 26009KT 10SM CLR 08/01 A3001 RMK AO2 SLP122 T00780006 =
2017-10-18 02:53 METAR KITR 180853Z AUTO 24007KT 10SM CLR 08/01 A3002 RMK AO2 SLP124 T00830006
                 58009 =
2017-10-18 01:53 METAR KITR 180753Z AUTO 24009KT 10SM CLR 08/01 A3003 RMK AO2 SLP127 T00780006 =
2017-10-18 00:53 METAR KITR 180653Z AUTO 25009KT 10SM CLR 09/02 A3004 RMK AO2 SLP131 T00940022
                 402670006 =
2017-10-17 23:53 METAR KITR 180553Z AUTO 19010KT 10SM CLR 08/01 A3004 RMK AO2 SLP136 T00830006
                 10150 20083 58006 =
2017-10-17 22:53 METAR KITR 180453Z AUTO 20011KT 10SM CLR 11/M02 A3006 RMK AO2 SLP142 T01061017 =
2017-10-17 21:53 METAR KITR 180353Z AUTO 20010KT 10SM CLR 09/M02 A3007 RMK AO2 SLP148 T00941017 =
2017-10-17 20:53 METAR KITR 180253Z AUTO 19010KT 10SM CLR 11/M02 A3007 RMK AO2 SLP155 T01111022
                 50000 =
2017-10-17 19:53 METAR KITR 180153Z AUTO 18011KT 10SM CLR 12/M02 A3007 RMK AO2 SLP168 T01171022 =
2017-10-17 18:53 METAR KITR 180053Z AUTO 18009KT 10SM CLR 13/M03 A3007 RMK AO2 SLP173 T01281028 =
2017-10-17 17:53 METAR KITR 172353Z AUTO 16008KT 10SM CLR 16/M04 A3007 RMK AO2 SLP165 T01561044
                 10267 20156 56008 =
2017-10-17 16:53 METAR KITR 172253Z AUTO 17009KT 10SM CLR 25/M07 A3007 RMK AO2 SLP154 T02501072 =

Support USWX by starting your Amazon purchase here.